createdAt,value
2022-08-31T00:01:49.941Z,101279.47
2022-08-31T00:04:16.533Z,101282.88
2022-08-31T00:06:43.039Z,101286.38
2022-08-31T00:09:09.525Z,101285.22
2022-08-31T00:11:36.281Z,101286.91
2022-08-31T00:14:07.576Z,101282.28
2022-08-31T00:16:41.306Z,101286.63
2022-08-31T00:19:08.162Z,101290.63
2022-08-31T00:21:34.639Z,101296.78
2022-08-31T00:24:01.210Z,101288.59
2022-08-31T00:26:27.686Z,101292.94
2022-08-31T00:28:54.254Z,101292.19
2022-08-31T00:31:20.920Z,101284.63
2022-08-31T00:34:28.149Z,101282.38
2022-08-31T00:36:54.606Z,101279.66
2022-08-31T00:39:21.729Z,101286.31
2022-08-31T00:41:48.282Z,101283.38
2022-08-31T00:44:14.791Z,101286.22
2022-08-31T00:46:43.068Z,101277.22
2022-08-31T00:49:13.593Z,101288.09
2022-08-31T00:51:47.065Z,101287.34
2022-08-31T00:54:15.882Z,101294.25
2022-08-31T00:56:44.837Z,101292.38
2022-08-31T00:59:13.302Z,101290.06
2022-08-31T01:01:39.833Z,101291.63
2022-08-31T01:04:06.394Z,101288.94
2022-08-31T01:06:33.168Z,101291.28
2022-08-31T01:09:01.712Z,101290.25
2022-08-31T01:11:28.486Z,101288.81
2022-08-31T01:13:55.878Z,101291.28
2022-08-31T01:16:34.466Z,101296.88
2022-08-31T01:19:04.426Z,101297.97
2022-08-31T01:21:44.986Z,101296.03
2022-08-31T01:24:11.927Z,101294.56
2022-08-31T01:26:38.915Z,101300.44
2022-08-31T01:29:06.739Z,101297.16
2022-08-31T01:31:40.616Z,101304.94
2022-08-31T01:34:07.760Z,101308.13
2022-08-31T01:37:19.981Z,101303.72
2022-08-31T01:39:55.962Z,101301.25
2022-08-31T01:42:22.742Z,101307.47
2022-08-31T01:44:59.414Z,101311.47
2022-08-31T01:47:25.930Z,101307.47
2022-08-31T01:49:52.420Z,101307.41
2022-08-31T01:52:22.606Z,101312.78
2022-08-31T01:54:51.101Z,101314.19
2022-08-31T01:57:17.706Z,101317.38
2022-08-31T02:00:00.661Z,101308.44
2022-08-31T02:02:27.319Z,101315.47
2022-08-31T02:04:53.826Z,101310.25
2022-08-31T02:11:01.066Z,101315.84
2022-08-31T02:13:27.682Z,101320.88
2022-08-31T02:15:54.424Z,101317.16
2022-08-31T02:18:20.869Z,101316.72
2022-08-31T02:20:49.148Z,101321.28
2022-08-31T02:23:15.564Z,101316.56
2022-08-31T02:25:42.052Z,101315.47
2022-08-31T02:28:09.037Z,101310.41
2022-08-31T02:30:35.567Z,101312.06
2022-08-31T02:33:02.022Z,101312.44
2022-08-31T02:35:28.547Z,101308.41
2022-08-31T02:37:55.084Z,101313.00
2022-08-31T02:40:21.949Z,101313.13
2022-08-31T02:42:52.883Z,101318.13
2022-08-31T02:45:20.986Z,101316.53
2022-08-31T02:47:47.432Z,101313.06
2022-08-31T02:50:13.926Z,101314.81
2022-08-31T02:52:40.365Z,101314.72
2022-08-31T02:55:07.335Z,101316.53
2022-08-31T02:57:33.776Z,101312.56
2022-08-31T03:00:00.280Z,101319.03
2022-08-31T03:02:31.699Z,101312.56
2022-08-31T03:05:01.106Z,101313.47
2022-08-31T03:07:27.595Z,101318.94
2022-08-31T03:09:54.191Z,101318.94
2022-08-31T03:12:20.735Z,101311.38
2022-08-31T03:14:47.202Z,101311.38
2022-08-31T03:17:13.655Z,101313.72
2022-08-31T03:19:40.107Z,101308.78
2022-08-31T03:22:06.613Z,101308.38
2022-08-31T03:24:33.067Z,101307.66
2022-08-31T03:26:59.535Z,101306.50
2022-08-31T03:29:26.085Z,101303.56
2022-08-31T03:31:52.582Z,101305.38
2022-08-31T03:34:19.123Z,101308.53
2022-08-31T03:36:45.570Z,101306.81
2022-08-31T03:39:12.066Z,101306.25
2022-08-31T03:41:38.760Z,101309.66
2022-08-31T03:44:06.338Z,101301.66
2022-08-31T03:46:33.707Z,101299.75
2022-08-31T03:49:01.534Z,101312.81
2022-08-31T03:51:28.212Z,101311.84
2022-08-31T03:53:54.759Z,101315.09
2022-08-31T03:56:21.313Z,101316.25
2022-08-31T03:58:47.784Z,101319.94
2022-08-31T04:01:14.888Z,101316.88
2022-08-31T04:03:41.476Z,101314.56
2022-08-31T04:06:10.023Z,101320.34
2022-08-31T04:08:36.951Z,101318.06
2022-08-31T04:11:45.316Z,101322.09
2022-08-31T04:14:15.421Z,101334.19
2022-08-31T04:16:43.960Z,101334.91
2022-08-31T04:19:11.432Z,101337.69
2022-08-31T04:21:38.405Z,101334.53
2022-08-31T04:24:05.992Z,101327.69
2022-08-31T04:26:35.035Z,101331.28
2022-08-31T04:29:13.773Z,101328.25
2022-08-31T04:31:40.411Z,101324.63
2022-08-31T04:34:06.944Z,101336.72
2022-08-31T04:36:33.624Z,101341.03
2022-08-31T04:39:27.274Z,101338.50
2022-08-31T04:41:58.788Z,101344.47
2022-08-31T04:44:26.763Z,101346.63
2022-08-31T04:46:53.534Z,101349.84
2022-08-31T04:49:49.097Z,101347.97
2022-08-31T04:52:15.514Z,101346.53
2022-08-31T04:54:41.960Z,101342.28
2022-08-31T04:57:11.483Z,101347.50
2022-08-31T04:59:37.924Z,101342.66
2022-08-31T05:02:04.563Z,101343.91
2022-08-31T05:04:31.824Z,101349.31
2022-08-31T05:06:58.274Z,101349.16
2022-08-31T05:09:24.726Z,101355.63
2022-08-31T05:11:52.975Z,101354.66
2022-08-31T05:14:19.486Z,101349.25
2022-08-31T05:16:46.012Z,101347.97
2022-08-31T05:19:12.679Z,101351.06
2022-08-31T05:22:23.989Z,101355.69
2022-08-31T05:29:14.400Z,101359.13
2022-08-31T05:31:41.388Z,101355.34
2022-08-31T05:34:07.922Z,101357.72
2022-08-31T05:36:35.254Z,101350.22
2022-08-31T05:39:02.153Z,101349.31
2022-08-31T05:41:29.844Z,101352.25
2022-08-31T05:43:56.304Z,101346.50
2022-08-31T05:46:23.067Z,101345.00
2022-08-31T05:48:57.828Z,101353.94
2022-08-31T05:51:24.558Z,101347.75
2022-08-31T05:53:51.300Z,101353.84
2022-08-31T05:56:22.099Z,101349.56
2022-08-31T05:58:49.560Z,101348.09
2022-08-31T06:01:19.377Z,101350.53
2022-08-31T06:03:46.358Z,101343.50
2022-08-31T06:06:13.797Z,101356.66
2022-08-31T06:08:41.178Z,101356.16
2022-08-31T06:11:13.624Z,101353.97
2022-08-31T06:13:40.494Z,101356.41
2022-08-31T06:16:07.252Z,101353.34
2022-08-31T06:22:14.253Z,101352.94
2022-08-31T06:24:40.746Z,101351.47
2022-08-31T06:27:07.412Z,101354.38
2022-08-31T06:29:34.457Z,101359.25
2022-08-31T06:32:00.942Z,101362.16
2022-08-31T06:34:29.150Z,101363.03
2022-08-31T06:36:55.785Z,101364.22
2022-08-31T06:39:22.229Z,101361.78
2022-08-31T06:41:52.437Z,101376.00
2022-08-31T06:44:21.031Z,101374.56
2022-08-31T06:46:47.785Z,101381.50
2022-08-31T06:49:14.911Z,101384.66
2022-08-31T06:52:32.365Z,101383.03
2022-08-31T06:55:01.178Z,101389.00
2022-08-31T06:57:27.618Z,101385.03
2022-08-31T06:59:54.197Z,101384.03
2022-08-31T07:02:20.739Z,101394.13
2022-08-31T07:04:47.282Z,101394.97
2022-08-31T07:07:13.758Z,101394.38
2022-08-31T07:09:41.097Z,101388.91
2022-08-31T07:12:08.027Z,101400.72
2022-08-31T07:14:35.649Z,101401.09
2022-08-31T07:17:05.129Z,101404.44
2022-08-31T07:19:31.946Z,101405.63
2022-08-31T07:22:00.416Z,101414.66
2022-08-31T07:24:30.059Z,101403.19
2022-08-31T07:26:59.019Z,101413.28
2022-08-31T07:29:30.076Z,101413.53
2022-08-31T07:31:57.815Z,101414.44
2022-08-31T07:34:27.070Z,101416.81
2022-08-31T07:37:29.677Z,101416.00
2022-08-31T07:40:14.713Z,101419.88
2022-08-31T07:42:43.654Z,101413.00
2022-08-31T07:45:22.838Z,101420.91
2022-08-31T07:47:53.841Z,101421.06
2022-08-31T07:50:21.204Z,101418.56
2022-08-31T07:52:54.321Z,101414.06
2022-08-31T07:55:23.304Z,101421.91
2022-08-31T07:57:53.276Z,101417.44
2022-08-31T08:00:22.720Z,101416.22
2022-08-31T08:02:52.884Z,101421.63
2022-08-31T08:05:26.714Z,101421.91
2022-08-31T08:07:55.797Z,101421.31
2022-08-31T08:10:24.198Z,101419.81
2022-08-31T08:12:57.020Z,101424.75
2022-08-31T08:15:24.741Z,101420.66
2022-08-31T08:18:00.745Z,101422.47
2022-08-31T08:20:35.184Z,101425.19
2022-08-31T08:23:11.439Z,101419.50
2022-08-31T08:25:41.389Z,101422.63
2022-08-31T08:28:28.977Z,101421.28
2022-08-31T08:31:01.170Z,101423.41
2022-08-31T08:33:29.478Z,101425.06
2022-08-31T08:36:00.666Z,101419.13
2022-08-31T08:38:31.574Z,101410.53
2022-08-31T08:40:59.908Z,101413.31
2022-08-31T08:43:35.837Z,101416.00
2022-08-31T08:46:25.224Z,101416.53
2022-08-31T08:48:55.867Z,101415.13
2022-08-31T08:51:26.286Z,101418.13
2022-08-31T08:53:57.454Z,101412.06
2022-08-31T08:56:33.524Z,101401.97
2022-08-31T08:59:00.533Z,101411.56
2022-08-31T09:01:28.832Z,101421.31
2022-08-31T09:04:10.336Z,101406.28
2022-08-31T09:06:53.671Z,101402.22
2022-08-31T09:09:32.971Z,101404.78
2022-08-31T09:12:09.295Z,101403.28
2022-08-31T09:15:07.312Z,101409.94
2022-08-31T09:17:36.702Z,101413.47
2022-08-31T09:20:04.545Z,101415.66
2022-08-31T09:22:50.276Z,101406.78
2022-08-31T09:25:33.264Z,101406.28
2022-08-31T09:28:01.494Z,101410.25
2022-08-31T09:30:52.905Z,101405.75
2022-08-31T09:33:21.564Z,101409.78
2022-08-31T09:39:36.912Z,101396.25
2022-08-31T09:42:14.568Z,101391.25
2022-08-31T09:44:42.270Z,101399.41
2022-08-31T09:47:46.295Z,101388.97
2022-08-31T09:50:25.010Z,101386.88
2022-08-31T09:53:10.018Z,101391.88
2022-08-31T09:55:36.403Z,101386.44
2022-08-31T09:58:04.361Z,101378.34
2022-08-31T10:00:44.765Z,101374.63
2022-08-31T10:03:28.329Z,101388.91
2022-08-31T10:05:55.557Z,101377.31
2022-08-31T10:08:34.234Z,101381.50
2022-08-31T10:11:11.275Z,101383.19
2022-08-31T10:13:53.816Z,101386.59
2022-08-31T10:16:36.490Z,101389.22
2022-08-31T10:19:09.673Z,101393.66
2022-08-31T10:21:45.197Z,101383.06
2022-08-31T10:24:36.673Z,101376.69
2022-08-31T10:27:10.046Z,101374.19
2022-08-31T10:29:51.721Z,101375.16
2022-08-31T10:32:27.792Z,101371.81
2022-08-31T10:35:05.863Z,101374.84
2022-08-31T10:37:49.615Z,101375.69
2022-08-31T10:40:43.496Z,101378.84
2022-08-31T10:43:21.515Z,101383.91
2022-08-31T10:45:52.124Z,101373.94
2022-08-31T10:48:24.951Z,101388.53
2022-08-31T10:50:57.513Z,101371.91
2022-08-31T10:53:42.562Z,101377.22
2022-08-31T10:56:24.123Z,101376.44
2022-08-31T10:59:03.258Z,101370.84
2022-08-31T11:02:01.846Z,101380.34
2022-08-31T11:04:51.629Z,101383.63
2022-08-31T11:07:24.925Z,101379.00
2022-08-31T11:09:59.326Z,101375.78
2022-08-31T11:12:29.362Z,101375.38
2022-08-31T11:15:09.789Z,101376.34
2022-08-31T11:18:05.087Z,101372.59
2022-08-31T11:20:40.826Z,101373.19
2022-08-31T11:23:16.746Z,101378.16
2022-08-31T11:25:49.445Z,101367.88
2022-08-31T11:28:32.260Z,101379.34
2022-08-31T11:31:02.768Z,101374.09
2022-08-31T11:33:31.197Z,101369.63
2022-08-31T11:36:07.605Z,101374.53
2022-08-31T11:38:41.264Z,101358.53
2022-08-31T11:41:11.034Z,101368.91
2022-08-31T11:43:37.396Z,101369.28
2022-08-31T11:49:45.893Z,101357.50
2022-08-31T11:52:24.192Z,101355.06
2022-08-31T11:54:50.573Z,101359.25
2022-08-31T11:57:24.739Z,101350.19
2022-08-31T11:59:52.702Z,101350.53
2022-08-31T12:02:20.259Z,101355.81
2022-08-31T12:04:47.911Z,101347.75
2022-08-31T12:07:17.087Z,101344.56
2022-08-31T12:10:07.859Z,101348.22
2022-08-31T12:13:18.593Z,101350.84
2022-08-31T12:16:01.352Z,101343.00
2022-08-31T12:18:46.267Z,101339.06
2022-08-31T12:21:57.827Z,101345.84
2022-08-31T12:24:38.354Z,101345.75
2022-08-31T12:27:46.697Z,101348.03
2022-08-31T12:30:18.225Z,101343.38
2022-08-31T12:32:46.049Z,101330.16
2022-08-31T12:36:10.576Z,101326.09
2022-08-31T12:38:37.354Z,101331.47
2022-08-31T12:41:05.322Z,101325.72
2022-08-31T12:43:38.974Z,101318.50
2022-08-31T12:46:45.595Z,101308.88
2022-08-31T12:49:31.531Z,101313.16
2022-08-31T12:52:08.387Z,101298.16
2022-08-31T12:55:08.900Z,101295.47
2022-08-31T12:57:47.832Z,101309.78
2022-08-31T13:00:26.410Z,101293.78
2022-08-31T13:03:01.749Z,101294.63
2022-08-31T13:05:31.783Z,101291.78
2022-08-31T13:07:58.715Z,101287.50
2022-08-31T13:10:27.466Z,101294.53
2022-08-31T13:13:00.547Z,101282.91
2022-08-31T13:15:39.454Z,101289.19
2022-08-31T13:18:47.872Z,101287.38
2022-08-31T13:21:20.228Z,101282.13
2022-08-31T13:23:48.271Z,101284.88
2022-08-31T13:26:23.509Z,101265.22
2022-08-31T13:28:52.438Z,101267.94
2022-08-31T13:31:22.941Z,101273.31
2022-08-31T13:33:49.681Z,101275.81
2022-08-31T13:36:32.612Z,101265.28
2022-08-31T13:39:26.161Z,101258.16
2022-08-31T13:42:32.401Z,101256.38
2022-08-31T13:45:04.168Z,101263.50
2022-08-31T13:47:37.946Z,101255.41
2022-08-31T13:50:23.594Z,101260.63
2022-08-31T13:53:16.034Z,101258.78
2022-08-31T13:55:43.225Z,101250.31
2022-08-31T13:58:30.482Z,101254.47
2022-08-31T14:01:18.838Z,101240.22
2022-08-31T14:03:58.094Z,101242.34
2022-08-31T14:06:26.195Z,101243.38
2022-08-31T14:09:05.076Z,101245.84
2022-08-31T14:11:33.693Z,101244.81
2022-08-31T14:14:09.876Z,101232.88
2022-08-31T14:16:39.822Z,101235.97
2022-08-31T14:19:10.965Z,101232.16
2022-08-31T14:21:42.281Z,101229.78
2022-08-31T14:24:12.282Z,101236.34
2022-08-31T14:26:41.724Z,101234.41
2022-08-31T14:29:12.368Z,101238.50
2022-08-31T14:31:52.825Z,101237.59
2022-08-31T14:34:32.146Z,101245.47
2022-08-31T14:37:06.113Z,101253.00
2022-08-31T14:39:36.063Z,101256.41
2022-08-31T14:42:08.714Z,101254.31
2022-08-31T14:44:40.591Z,101244.28
2022-08-31T14:47:09.527Z,101235.78
2022-08-31T14:49:36.922Z,101234.41
2022-08-31T14:52:04.568Z,101236.09
2022-08-31T14:54:34.739Z,101241.34
2022-08-31T14:57:10.028Z,101236.75
2022-08-31T14:59:39.606Z,101235.88
2022-08-31T15:02:09.923Z,101224.72
2022-08-31T15:04:39.862Z,101225.53
2022-08-31T15:07:10.085Z,101225.88
2022-08-31T15:09:55.900Z,101215.44
2022-08-31T15:12:22.553Z,101212.75
2022-08-31T15:14:49.769Z,101212.75
2022-08-31T15:17:19.551Z,101213.59
2022-08-31T15:19:47.868Z,101210.97
2022-08-31T15:22:15.786Z,101218.78
2022-08-31T15:24:44.775Z,101227.47
2022-08-31T15:27:14.506Z,101228.03
2022-08-31T15:29:46.674Z,101224.78
2022-08-31T15:32:16.882Z,101219.25
2022-08-31T15:34:49.936Z,101228.03
2022-08-31T15:37:17.025Z,101225.13
2022-08-31T15:39:48.830Z,101223.19
2022-08-31T15:42:20.698Z,101224.13
2022-08-31T15:44:57.258Z,101223.41
2022-08-31T15:47:48.122Z,101218.81
2022-08-31T15:50:19.160Z,101208.81
2022-08-31T15:52:51.565Z,101209.06
2022-08-31T15:55:23.208Z,101197.50
2022-08-31T15:57:54.293Z,101192.22
2022-08-31T16:00:23.474Z,101205.22
2022-08-31T16:02:57.155Z,101207.59
2022-08-31T16:05:28.324Z,101215.75
2022-08-31T16:07:55.669Z,101211.03
2022-08-31T16:10:25.605Z,101212.69
2022-08-31T16:12:52.697Z,101205.03
2022-08-31T16:15:22.276Z,101210.78
2022-08-31T16:17:51.206Z,101207.47
2022-08-31T16:20:17.797Z,101203.13
2022-08-31T16:22:44.661Z,101201.66
2022-08-31T16:25:16.610Z,101197.56
2022-08-31T16:27:43.285Z,101202.69
2022-08-31T16:30:11.084Z,101202.84
2022-08-31T16:32:37.612Z,101211.84
2022-08-31T16:35:05.581Z,101207.22
2022-08-31T16:37:33.085Z,101205.00
2022-08-31T16:39:59.643Z,101196.22
2022-08-31T16:42:26.310Z,101205.31
2022-08-31T16:44:52.802Z,101205.31
2022-08-31T16:47:19.897Z,101202.84
2022-08-31T16:49:47.126Z,101199.56
2022-08-31T16:52:18.169Z,101206.50
2022-08-31T16:54:48.018Z,101201.09
2022-08-31T16:57:17.807Z,101192.53
2022-08-31T17:03:25.376Z,101213.88
2022-08-31T17:05:52.911Z,101214.59
2022-08-31T17:08:20.221Z,101216.31
2022-08-31T17:10:51.422Z,101220.84
2022-08-31T17:13:17.996Z,101226.19
2022-08-31T17:15:44.542Z,101228.53
2022-08-31T17:18:11.197Z,101229.00
2022-08-31T17:20:39.850Z,101234.50
2022-08-31T17:23:06.647Z,101236.84
2022-08-31T17:25:35.805Z,101234.72
2022-08-31T17:31:49.590Z,101242.66
2022-08-31T17:34:22.025Z,101236.72
2022-08-31T17:36:50.527Z,101237.53
2022-08-31T17:39:19.690Z,101238.88
2022-08-31T17:41:46.396Z,101241.41
2022-08-31T17:44:16.127Z,101249.59
2022-08-31T17:47:20.913Z,101253.03
2022-08-31T17:49:47.735Z,101251.28
2022-08-31T17:52:14.361Z,101249.22
2022-08-31T17:54:43.216Z,101249.53
2022-08-31T17:57:14.807Z,101253.38
2022-08-31T17:59:44.434Z,101247.19
2022-08-31T18:02:32.473Z,101249.16
2022-08-31T18:04:59.962Z,101252.13
2022-08-31T18:07:26.694Z,101261.06
2022-08-31T18:09:53.943Z,101253.09
2022-08-31T18:12:22.220Z,101254.91
2022-08-31T18:14:49.025Z,101257.19
2022-08-31T18:17:19.846Z,101255.66
2022-08-31T18:19:46.515Z,101264.16
2022-08-31T18:22:14.554Z,101260.63
2022-08-31T18:24:42.800Z,101263.31
2022-08-31T18:27:10.895Z,101268.47
2022-08-31T18:29:38.471Z,101279.09
2022-08-31T18:32:06.903Z,101283.03
2022-08-31T18:34:37.089Z,101279.94
2022-08-31T18:37:09.825Z,101286.88
2022-08-31T18:39:59.875Z,101287.13
2022-08-31T18:42:46.255Z,101294.41
2022-08-31T18:45:15.747Z,101289.53
2022-08-31T18:47:42.407Z,101305.69
2022-08-31T18:50:09.250Z,101303.63
2022-08-31T18:52:39.266Z,101302.47
2022-08-31T18:55:06.756Z,101313.06
2022-08-31T18:57:33.694Z,101318.97
2022-08-31T19:00:02.523Z,101315.63
2022-08-31T19:02:29.721Z,101321.13
2022-08-31T19:04:56.388Z,101319.88
2022-08-31T19:07:23.067Z,101321.50
2022-08-31T19:09:49.694Z,101323.09
2022-08-31T19:12:19.476Z,101324.22
2022-08-31T19:14:55.516Z,101315.91
2022-08-31T19:17:22.855Z,101322.56
2022-08-31T19:19:49.502Z,101318.38
2022-08-31T19:22:16.781Z,101327.22
2022-08-31T19:24:43.645Z,101320.38
2022-08-31T19:27:10.481Z,101325.53
2022-08-31T19:29:38.366Z,101326.06
2022-08-31T19:32:05.885Z,101325.28
2022-08-31T19:34:36.297Z,101324.72
2022-08-31T19:37:36.990Z,101317.75
2022-08-31T19:40:05.594Z,101324.34
2022-08-31T19:45:23.651Z,101327.88
2022-08-31T19:47:51.088Z,101333.22
2022-08-31T19:50:17.901Z,101338.28
2022-08-31T19:52:44.587Z,101328.44
2022-08-31T19:58:59.443Z,101333.94
2022-08-31T20:01:33.889Z,101336.00
2022-08-31T20:04:03.518Z,101335.28
2022-08-31T20:06:31.652Z,101327.69
2022-08-31T20:08:58.451Z,101335.25
2022-08-31T20:11:27.657Z,101339.38
2022-08-31T20:13:58.777Z,101333.78
2022-08-31T20:16:33.586Z,101334.97
2022-08-31T20:19:01.298Z,101339.03
2022-08-31T20:21:31.186Z,101337.88
2022-08-31T20:24:01.739Z,101335.41
2022-08-31T20:26:33.167Z,101345.94
2022-08-31T20:29:18.071Z,101346.41
2022-08-31T20:31:48.581Z,101335.47
2022-08-31T20:34:19.090Z,101339.03
2022-08-31T20:36:48.201Z,101355.53
2022-08-31T20:39:16.891Z,101346.91
2022-08-31T20:41:46.613Z,101346.09
2022-08-31T20:44:22.519Z,101351.28
2022-08-31T20:47:14.309Z,101357.63
2022-08-31T20:50:11.362Z,101354.38
2022-08-31T20:52:39.137Z,101353.63
2022-08-31T20:55:07.646Z,101355.03
2022-08-31T20:57:35.692Z,101355.44
2022-08-31T21:00:05.728Z,101354.69
2022-08-31T21:02:34.630Z,101357.22
2022-08-31T21:05:26.798Z,101357.97
2022-08-31T21:07:48.792Z,101350.78
2022-08-31T21:10:15.284Z,101351.31
2022-08-31T21:12:42.662Z,101359.03
2022-08-31T21:15:10.311Z,101357.59
2022-08-31T21:17:36.991Z,101355.25
2022-08-31T21:20:05.437Z,101354.50
2022-08-31T21:22:34.951Z,101356.41
2022-08-31T21:25:03.673Z,101357.06
2022-08-31T21:27:31.136Z,101347.88
2022-08-31T21:29:57.919Z,101351.91
2022-08-31T21:32:24.464Z,101351.34
2022-08-31T21:34:55.567Z,101350.06
2022-08-31T21:37:22.160Z,101357.09
2022-08-31T21:39:48.826Z,101347.91
2022-08-31T21:42:15.497Z,101351.22
2022-08-31T21:44:42.585Z,101345.72
2022-08-31T21:47:14.718Z,101344.03
2022-08-31T21:49:42.906Z,101352.44
2022-08-31T21:52:09.684Z,101349.50
2022-08-31T21:54:36.319Z,101348.91
2022-08-31T21:57:03.736Z,101346.38
2022-08-31T21:59:35.229Z,101353.00
2022-08-31T22:02:06.616Z,101354.41
2022-08-31T22:04:35.457Z,101352.66
2022-08-31T22:07:02.184Z,101358.88
2022-08-31T22:09:29.607Z,101359.69
2022-08-31T22:11:58.137Z,101363.59
2022-08-31T22:14:28.919Z,101366.47
2022-08-31T22:17:06.275Z,101367.47
2022-08-31T22:19:36.139Z,101367.19
2022-08-31T22:22:05.341Z,101364.41
2022-08-31T22:24:33.818Z,101360.91
2022-08-31T22:27:04.034Z,101362.50
2022-08-31T22:29:32.919Z,101370.63
2022-08-31T22:32:02.240Z,101358.44
2022-08-31T22:34:28.738Z,101366.28
2022-08-31T22:36:56.660Z,101359.72
2022-08-31T22:39:28.460Z,101354.94
2022-08-31T22:41:56.616Z,101353.53
2022-08-31T22:44:26.027Z,101363.94
2022-08-31T22:46:53.777Z,101367.47
2022-08-31T22:49:20.280Z,101363.94
2022-08-31T22:52:44.774Z,101357.25
2022-08-31T22:55:11.256Z,101359.06
2022-08-31T22:57:38.075Z,101359.41
2022-08-31T23:00:11.874Z,101361.47
2022-08-31T23:02:44.769Z,101358.84
2022-08-31T23:05:13.883Z,101359.84
2022-08-31T23:07:42.258Z,101354.72
2022-08-31T23:10:11.438Z,101359.91
2022-08-31T23:12:37.947Z,101350.41
2022-08-31T23:15:04.795Z,101343.91
2022-08-31T23:17:31.399Z,101352.00
2022-08-31T23:20:01.977Z,101348.47
2022-08-31T23:22:29.491Z,101351.25
2022-08-31T23:25:00.604Z,101349.69
2022-08-31T23:27:27.240Z,101353.47
2022-08-31T23:29:56.642Z,101344.00
2022-08-31T23:32:27.527Z,101344.28
2022-08-31T23:34:57.046Z,101348.50
2022-08-31T23:37:25.843Z,101344.06
2022-08-31T23:39:53.774Z,101343.84
2022-08-31T23:42:20.739Z,101339.38
2022-08-31T23:44:48.769Z,101342.78
2022-08-31T23:47:21.657Z,101349.13
2022-08-31T23:49:51.613Z,101348.34
2022-08-31T23:52:37.749Z,101341.47
2022-08-31T23:55:06.156Z,101343.69
2022-08-31T23:57:33.722Z,101339.47
